sensor_id;sensor_type;location;lat;lon;timestamp;temperature;humidity
4207;DHT22;2117;47.972;7.830;2022-12-18T02:32:52;-4.50;99.90
4207;DHT22;2117;47.972;7.830;2022-12-18T02:35:23;-4.50;99.90
4207;DHT22;2117;47.972;7.830;2022-12-18T02:37:54;-4.60;99.90
4207;DHT22;2117;47.972;7.830;2022-12-18T02:40:21;-4.50;99.90
4207;DHT22;2117;47.972;7.830;2022-12-18T02:42:47;-4.50;99.90
4207;DHT22;2117;47.972;7.830;2022-12-18T02:45:12;-4.50;99.90
4207;DHT22;2117;47.972;7.830;2022-12-18T02:47:41;-4.50;99.90
4207;DHT22;2117;47.972;7.830;2022-12-18T02:50:24;-4.50;99.90
4207;DHT22;2117;47.972;7.830;2022-12-18T02:58:47;-4.70;99.90
4207;DHT22;2117;47.972;7.830;2022-12-18T03:01:21;-4.90;99.90
4207;DHT22;2117;47.972;7.830;2022-12-18T03:03:55;-5.00;99.90
4207;DHT22;2117;47.972;7.830;2022-12-18T03:08:51;-4.90;99.90
4207;DHT22;2117;47.972;7.830;2022-12-18T03:11:17;-4.80;99.90
4207;DHT22;2117;47.972;7.830;2022-12-18T03:14:04;-4.80;99.90
4207;DHT22;2117;47.972;7.830;2022-12-18T03:16:31;-4.80;99.90
4207;DHT22;2117;47.972;7.830;2022-12-18T03:19:03;-4.80;99.90
4207;DHT22;2117;47.972;7.830;2022-12-18T03:21:35;-4.80;99.90
4207;DHT22;2117;47.972;7.830;2022-12-18T03:24:05;-4.80;99.90
4207;DHT22;2117;47.972;7.830;2022-12-18T03:26:33;-4.90;99.90
4207;DHT22;2117;47.972;7.830;2022-12-18T03:29:04;-4.90;99.90
4207;DHT22;2117;47.972;7.830;2022-12-18T03:31:35;-4.90;99.90
4207;DHT22;2117;47.972;7.830;2022-12-18T03:34:05;-4.80;99.90
4207;DHT22;2117;47.972;7.830;2022-12-18T03:36:34;-4.80;99.90
4207;DHT22;2117;47.972;7.830;2022-12-18T03:39:00;-4.80;99.90
4207;DHT22;2117;47.972;7.830;2022-12-18T03:41:41;-4.90;99.90
4207;DHT22;2117;47.972;7.830;2022-12-18T03:44:19;-4.90;99.90
4207;DHT22;2117;47.972;7.830;2022-12-18T03:47:19;-4.90;99.90
4207;DHT22;2117;47.972;7.830;2022-12-18T03:49:55;-5.00;99.90
4207;DHT22;2117;47.972;7.830;2022-12-18T03:52:30;-5.10;99.90
4207;DHT22;2117;47.972;7.830;2022-12-18T03:54:59;-5.10;99.90
4207;DHT22;2117;47.972;7.830;2022-12-18T03:57:28;-5.10;99.90
4207;DHT22;2117;47.972;7.830;2022-12-18T03:59:57;-5.10;99.90
4207;DHT22;2117;47.972;7.830;2022-12-18T04:02:24;-5.10;99.90
4207;DHT22;2117;47.972;7.830;2022-12-18T04:04:53;-5.10;99.90
4207;DHT22;2117;47.972;7.830;2022-12-18T04:07:21;-5.20;99.90
4207;DHT22;2117;47.972;7.830;2022-12-18T04:09:48;-5.20;99.90
4207;DHT22;2117;47.972;7.830;2022-12-18T04:12:14;-5.20;99.90
4207;DHT22;2117;47.972;7.830;2022-12-18T04:14:39;-5.20;99.90
4207;DHT22;2117;47.972;7.830;2022-12-18T04:17:05;-5.20;99.90
4207;DHT22;2117;47.972;7.830;2022-12-18T04:19:30;-5.20;99.90
4207;DHT22;2117;47.972;7.830;2022-12-18T04:21:56;-5.30;99.90
4207;DHT22;2117;47.972;7.830;2022-12-18T04:24:22;-5.40;99.90
4207;DHT22;2117;47.972;7.830;2022-12-18T04:26:47;-5.40;99.90
4207;DHT22;2117;47.972;7.830;2022-12-18T04:29:13;-5.40;99.90
4207;DHT22;2117;47.972;7.830;2022-12-18T04:31:38;-5.40;99.90
4207;DHT22;2117;47.972;7.830;2022-12-18T04:34:04;-5.50;99.90
4207;DHT22;2117;47.972;7.830;2022-12-18T04:36:29;-5.50;99.90
4207;DHT22;2117;47.972;7.830;2022-12-18T04:38:55;-5.50;99.90
4207;DHT22;2117;47.972;7.830;2022-12-18T04:41:21;-5.60;99.90
4207;DHT22;2117;47.972;7.830;2022-12-18T04:43:49;-5.60;99.90
4207;DHT22;2117;47.972;7.830;2022-12-18T04:46:14;-5.70;99.90
4207;DHT22;2117;47.972;7.830;2022-12-18T04:48:40;-5.70;99.90
4207;DHT22;2117;47.972;7.830;2022-12-18T04:51:06;-5.70;99.90
4207;DHT22;2117;47.972;7.830;2022-12-18T04:53:32;-5.80;99.90
4207;DHT22;2117;47.972;7.830;2022-12-18T04:56:09;-5.80;99.90
4207;DHT22;2117;47.972;7.830;2022-12-18T04:58:35;-5.80;99.90
4207;DHT22;2117;47.972;7.830;2022-12-18T05:01:01;-5.90;99.90
4207;DHT22;2117;47.972;7.830;2022-12-18T05:03:27;-5.80;99.90
4207;DHT22;2117;47.972;7.830;2022-12-18T05:05:53;-5.80;99.90
4207;DHT22;2117;47.972;7.830;2022-12-18T05:08:19;-5.90;99.90
4207;DHT22;2117;47.972;7.830;2022-12-18T05:10:44;-5.90;99.90
4207;DHT22;2117;47.972;7.830;2022-12-18T05:13:10;-5.90;99.90
4207;DHT22;2117;47.972;7.830;2022-12-18T05:15:35;-5.90;99.90
4207;DHT22;2117;47.972;7.830;2022-12-18T05:18:02;-6.00;99.90
4207;DHT22;2117;47.972;7.830;2022-12-18T05:20:28;-6.00;99.90
4207;DHT22;2117;47.972;7.830;2022-12-18T05:22:54;-6.10;99.90
4207;DHT22;2117;47.972;7.830;2022-12-18T05:25:20;-6.10;99.90
4207;DHT22;2117;47.972;7.830;2022-12-18T05:27:46;-6.10;99.90
4207;DHT22;2117;47.972;7.830;2022-12-18T05:30:13;-6.10;99.90
4207;DHT22;2117;47.972;7.830;2022-12-18T05:32:39;-6.10;99.90
4207;DHT22;2117;47.972;7.830;2022-12-18T05:35:07;-6.20;99.90
4207;DHT22;2117;47.972;7.830;2022-12-18T05:37:33;-6.20;99.90
4207;DHT22;2117;47.972;7.830;2022-12-18T05:39:58;-6.20;99.90
4207;DHT22;2117;47.972;7.830;2022-12-18T05:42:24;-6.20;99.90
4207;DHT22;2117;47.972;7.830;2022-12-18T05:44:50;-6.30;99.90
4207;DHT22;2117;47.972;7.830;2022-12-18T05:47:15;-6.30;99.90
4207;DHT22;2117;47.972;7.830;2022-12-18T05:49:41;-6.30;99.90
4207;DHT22;2117;47.972;7.830;2022-12-18T05:52:07;-6.40;99.90
4207;DHT22;2117;47.972;7.830;2022-12-18T05:54:32;-6.50;99.90
4207;DHT22;2117;47.972;7.830;2022-12-18T05:56:58;-6.50;99.90
4207;DHT22;2117;47.972;7.830;2022-12-18T05:59:24;-6.50;99.90
4207;DHT22;2117;47.972;7.830;2022-12-18T06:01:49;-6.50;99.90
4207;DHT22;2117;47.972;7.830;2022-12-18T06:04:15;-6.60;99.90
4207;DHT22;2117;47.972;7.830;2022-12-18T06:06:41;-6.60;99.90
4207;DHT22;2117;47.972;7.830;2022-12-18T06:09:06;-6.60;99.90
4207;DHT22;2117;47.972;7.830;2022-12-18T06:11:35;-6.60;99.90
4207;DHT22;2117;47.972;7.830;2022-12-18T06:14:02;-6.60;99.90
4207;DHT22;2117;47.972;7.830;2022-12-18T06:16:28;-6.60;99.90
4207;DHT22;2117;47.972;7.830;2022-12-18T06:19:01;-6.70;99.90
4207;DHT22;2117;47.972;7.830;2022-12-18T06:21:27;-6.70;99.90
4207;DHT22;2117;47.972;7.830;2022-12-18T06:23:53;-6.70;99.90
4207;DHT22;2117;47.972;7.830;2022-12-18T06:26:19;-6.70;99.90
4207;DHT22;2117;47.972;7.830;2022-12-18T06:28:45;-6.70;99.90
4207;DHT22;2117;47.972;7.830;2022-12-18T06:31:11;-6.70;99.90
4207;DHT22;2117;47.972;7.830;2022-12-18T06:33:37;-6.80;99.90
4207;DHT22;2117;47.972;7.830;2022-12-18T06:36:08;-6.80;99.90
4207;DHT22;2117;47.972;7.830;2022-12-18T06:38:36;-6.80;99.90
4207;DHT22;2117;47.972;7.830;2022-12-18T06:41:07;-6.70;99.90
4207;DHT22;2117;47.972;7.830;2022-12-18T06:43:33;-6.80;99.90
4207;DHT22;2117;47.972;7.830;2022-12-18T06:46:02;-6.80;99.90
4207;DHT22;2117;47.972;7.830;2022-12-18T06:48:28;-6.80;99.90
4207;DHT22;2117;47.972;7.830;2022-12-18T06:50:54;-6.80;99.90
4207;DHT22;2117;47.972;7.830;2022-12-18T06:53:20;-6.80;99.90
4207;DHT22;2117;47.972;7.830;2022-12-18T06:55:45;-6.90;99.90
4207;DHT22;2117;47.972;7.830;2022-12-18T06:58:11;-6.90;99.90
4207;DHT22;2117;47.972;7.830;2022-12-18T07:00:36;-6.90;99.90
4207;DHT22;2117;47.972;7.830;2022-12-18T07:03:02;-6.90;99.90
4207;DHT22;2117;47.972;7.830;2022-12-18T07:05:27;-6.90;99.90
4207;DHT22;2117;47.972;7.830;2022-12-18T07:07:53;-7.00;99.90
4207;DHT22;2117;47.972;7.830;2022-12-18T07:10:18;-7.00;99.90
4207;DHT22;2117;47.972;7.830;2022-12-18T07:12:44;-7.00;99.90
4207;DHT22;2117;47.972;7.830;2022-12-18T07:15:10;-7.00;99.90
4207;DHT22;2117;47.972;7.830;2022-12-18T07:17:35;-7.00;99.90
4207;DHT22;2117;47.972;7.830;2022-12-18T07:20:01;-7.10;99.90
4207;DHT22;2117;47.972;7.830;2022-12-18T07:22:27;-7.10;99.90
4207;DHT22;2117;47.972;7.830;2022-12-18T07:24:52;-7.10;99.90
4207;DHT22;2117;47.972;7.830;2022-12-18T07:27:18;-7.20;99.90
4207;DHT22;2117;47.972;7.830;2022-12-18T07:29:44;-7.20;99.90
4207;DHT22;2117;47.972;7.830;2022-12-18T07:32:09;-7.20;99.90
4207;DHT22;2117;47.972;7.830;2022-12-18T07:34:35;-7.30;99.90
4207;DHT22;2117;47.972;7.830;2022-12-18T07:37:01;-7.30;99.90
4207;DHT22;2117;47.972;7.830;2022-12-18T07:39:26;-7.30;99.90
4207;DHT22;2117;47.972;7.830;2022-12-18T07:41:52;-7.30;99.90
4207;DHT22;2117;47.972;7.830;2022-12-18T07:44:36;-7.40;99.90
4207;DHT22;2117;47.972;7.830;2022-12-18T07:47:01;-7.30;99.90
4207;DHT22;2117;47.972;7.830;2022-12-18T07:49:27;-7.40;99.90
4207;DHT22;2117;47.972;7.830;2022-12-18T07:51:55;-7.30;99.90
4207;DHT22;2117;47.972;7.830;2022-12-18T07:54:21;-7.30;99.90
4207;DHT22;2117;47.972;7.830;2022-12-18T07:56:47;-7.40;99.90
4207;DHT22;2117;47.972;7.830;2022-12-18T07:59:12;-7.30;99.90
4207;DHT22;2117;47.972;7.830;2022-12-18T08:01:38;-7.30;99.90
4207;DHT22;2117;47.972;7.830;2022-12-18T08:04:04;-7.40;99.90
4207;DHT22;2117;47.972;7.830;2022-12-18T08:06:29;-7.30;99.90
4207;DHT22;2117;47.972;7.830;2022-12-18T08:08:56;-7.30;99.90
4207;DHT22;2117;47.972;7.830;2022-12-18T08:11:23;-7.30;99.90
4207;DHT22;2117;47.972;7.830;2022-12-18T08:13:49;-7.30;99.90
4207;DHT22;2117;47.972;7.830;2022-12-18T08:16:15;-7.30;99.90
4207;DHT22;2117;47.972;7.830;2022-12-18T08:18:41;-7.20;99.90
4207;DHT22;2117;47.972;7.830;2022-12-18T08:21:22;-7.10;99.90
4207;DHT22;2117;47.972;7.830;2022-12-18T08:23:49;-7.20;99.90
4207;DHT22;2117;47.972;7.830;2022-12-18T08:26:14;-7.20;99.90
4207;DHT22;2117;47.972;7.830;2022-12-18T08:28:41;-7.20;99.90
4207;DHT22;2117;47.972;7.830;2022-12-18T08:31:08;-7.20;99.90
4207;DHT22;2117;47.972;7.830;2022-12-18T08:33:34;-7.30;99.90
4207;DHT22;2117;47.972;7.830;2022-12-18T08:36:00;-7.30;99.90
4207;DHT22;2117;47.972;7.830;2022-12-18T08:38:26;-7.20;99.90
4207;DHT22;2117;47.972;7.830;2022-12-18T08:41:04;-7.20;99.90
4207;DHT22;2117;47.972;7.830;2022-12-18T08:43:30;-7.10;99.90
4207;DHT22;2117;47.972;7.830;2022-12-18T08:46:18;-7.10;99.90
4207;DHT22;2117;47.972;7.830;2022-12-18T08:48:44;-7.10;99.90
4207;DHT22;2117;47.972;7.830;2022-12-18T08:51:09;-7.10;99.90
4207;DHT22;2117;47.972;7.830;2022-12-18T08:53:36;-7.00;99.90
4207;DHT22;2117;47.972;7.830;2022-12-18T08:56:02;-6.90;99.90
4207;DHT22;2117;47.972;7.830;2022-12-18T08:58:28;-6.90;99.90
4207;DHT22;2117;47.972;7.830;2022-12-18T09:00:53;-6.80;99.90
4207;DHT22;2117;47.972;7.830;2022-12-18T09:03:19;-6.80;99.90
4207;DHT22;2117;47.972;7.830;2022-12-18T09:05:47;-6.80;99.90
4207;DHT22;2117;47.972;7.830;2022-12-18T09:08:13;-6.80;99.90
4207;DHT22;2117;47.972;7.830;2022-12-18T09:10:43;-6.80;99.90
4207;DHT22;2117;47.972;7.830;2022-12-18T09:13:10;-6.70;99.90
4207;DHT22;2117;47.972;7.830;2022-12-18T09:15:47;-6.60;99.90
4207;DHT22;2117;47.972;7.830;2022-12-18T09:18:14;-6.50;99.90
4207;DHT22;2117;47.972;7.830;2022-12-18T09:20:40;-6.50;99.90
4207;DHT22;2117;47.972;7.830;2022-12-18T09:23:06;-6.40;99.90
4207;DHT22;2117;47.972;7.830;2022-12-18T09:25:33;-6.30;99.90
4207;DHT22;2117;47.972;7.830;2022-12-18T09:28:02;-6.20;99.90
4207;DHT22;2117;47.972;7.830;2022-12-18T09:30:27;-6.20;99.90
4207;DHT22;2117;47.972;7.830;2022-12-18T09:32:56;-6.10;99.90
4207;DHT22;2117;47.972;7.830;2022-12-18T09:35:21;-6.00;99.90
4207;DHT22;2117;47.972;7.830;2022-12-18T09:37:47;-5.90;99.90
4207;DHT22;2117;47.972;7.830;2022-12-18T09:40:21;-5.80;99.90
4207;DHT22;2117;47.972;7.830;2022-12-18T09:42:54;-5.70;99.90
4207;DHT22;2117;47.972;7.830;2022-12-18T09:45:21;-5.60;99.90
4207;DHT22;2117;47.972;7.830;2022-12-18T09:47:47;-5.50;99.90
4207;DHT22;2117;47.972;7.830;2022-12-18T09:50:25;-5.40;99.90
4207;DHT22;2117;47.972;7.830;2022-12-18T09:52:54;-5.40;99.90
4207;DHT22;2117;47.972;7.830;2022-12-18T09:55:38;-5.30;99.90
4207;DHT22;2117;47.972;7.830;2022-12-18T10:01:01;-5.10;99.90
4207;DHT22;2117;47.972;7.830;2022-12-18T10:03:27;-5.00;99.90
4207;DHT22;2117;47.972;7.830;2022-12-18T10:06:07;-5.00;99.90
4207;DHT22;2117;47.972;7.830;2022-12-18T10:08:54;-4.90;99.90
4207;DHT22;2117;47.972;7.830;2022-12-18T10:19:41;-4.60;99.90
4207;DHT22;2117;47.972;7.830;2022-12-18T10:28:03;-4.30;99.90
4207;DHT22;2117;47.972;7.830;2022-12-18T10:30:33;-4.30;99.90
4207;DHT22;2117;47.972;7.830;2022-12-18T10:33:02;-4.30;99.90
4207;DHT22;2117;47.972;7.830;2022-12-18T10:35:28;-4.20;99.90
4207;DHT22;2117;47.972;7.830;2022-12-18T10:40:26;-4.00;99.90
4207;DHT22;2117;47.972;7.830;2022-12-18T10:43:11;-4.00;99.90
4207;DHT22;2117;47.972;7.830;2022-12-18T10:45:37;-3.80;99.90
4207;DHT22;2117;47.972;7.830;2022-12-18T10:48:03;-3.80;99.90
4207;DHT22;2117;47.972;7.830;2022-12-18T10:50:33;-3.70;99.90
4207;DHT22;2117;47.972;7.830;2022-12-18T10:53:03;-3.60;99.90
4207;DHT22;2117;47.972;7.830;2022-12-18T10:55:39;-3.50;99.90
4207;DHT22;2117;47.972;7.830;2022-12-18T10:58:21;-3.40;99.90
4207;DHT22;2117;47.972;7.830;2022-12-18T11:03:43;-3.20;99.90
4207;DHT22;2117;47.972;7.830;2022-12-18T11:08:37;-3.10;99.90
4207;DHT22;2117;47.972;7.830;2022-12-18T11:11:07;-3.00;99.90
4207;DHT22;2117;47.972;7.830;2022-12-18T11:13:32;-2.90;99.90
4207;DHT22;2117;47.972;7.830;2022-12-18T11:15:58;-2.80;99.90
4207;DHT22;2117;47.972;7.830;2022-12-18T11:18:34;-2.70;99.90
4207;DHT22;2117;47.972;7.830;2022-12-18T11:21:06;-2.70;99.90
4207;DHT22;2117;47.972;7.830;2022-12-18T11:23:33;-2.60;99.90
4207;DHT22;2117;47.972;7.830;2022-12-18T11:26:03;-2.50;99.90
4207;DHT22;2117;47.972;7.830;2022-12-18T11:36:46;-2.50;99.90
4207;DHT22;2117;47.972;7.830;2022-12-18T11:39:37;-2.40;99.90
4207;DHT22;2117;47.972;7.830;2022-12-18T11:42:15;-2.30;99.90
4207;DHT22;2117;47.972;7.830;2022-12-18T11:47:30;-2.20;99.90
4207;DHT22;2117;47.972;7.830;2022-12-18T11:50:00;-2.10;99.90
4207;DHT22;2117;47.972;7.830;2022-12-18T11:52:31;-2.10;99.90
4207;DHT22;2117;47.972;7.830;2022-12-18T11:55:01;-2.20;99.90
4207;DHT22;2117;47.972;7.830;2022-12-18T11:57:35;-2.10;99.90
4207;DHT22;2117;47.972;7.830;2022-12-18T12:03:05;-1.90;99.90
4207;DHT22;2117;47.972;7.830;2022-12-18T12:08:57;-1.60;99.90
4207;DHT22;2117;47.972;7.830;2022-12-18T12:19:59;-1.80;99.90
4207;DHT22;2117;47.972;7.830;2022-12-18T12:28:32;-1.40;99.90
4207;DHT22;2117;47.972;7.830;2022-12-18T12:31:16;-1.20;99.90
4207;DHT22;2117;47.972;7.830;2022-12-18T12:34:06;-1.10;99.90
4207;DHT22;2117;47.972;7.830;2022-12-18T12:36:42;-1.10;99.90
4207;DHT22;2117;47.972;7.830;2022-12-18T12:39:15;-1.20;99.90
4207;DHT22;2117;47.972;7.830;2022-12-18T12:41:45;-1.20;99.90
4207;DHT22;2117;47.972;7.830;2022-12-18T12:44:33;-1.10;99.90
4207;DHT22;2117;47.972;7.830;2022-12-18T12:47:11;-1.00;99.90
4207;DHT22;2117;47.972;7.830;2022-12-18T12:49:38;-0.90;99.90
4207;DHT22;2117;47.972;7.830;2022-12-18T12:52:12;-0.80;99.90
4207;DHT22;2117;47.972;7.830;2022-12-18T12:54:40;-0.70;99.90
4207;DHT22;2117;47.972;7.830;2022-12-18T12:57:27;-0.60;99.90
4207;DHT22;2117;47.972;7.830;2022-12-18T13:00:15;-0.60;99.90
4207;DHT22;2117;47.972;7.830;2022-12-18T13:03:12;-0.70;99.90
4207;DHT22;2117;47.972;7.830;2022-12-18T13:05:54;-0.70;99.90
4207;DHT22;2117;47.972;7.830;2022-12-18T13:08:29;-0.60;99.90
4207;DHT22;2117;47.972;7.830;2022-12-18T13:10:59;-0.50;99.90
4207;DHT22;2117;47.972;7.830;2022-12-18T13:13:52;-0.40;99.90
4207;DHT22;2117;47.972;7.830;2022-12-18T13:16:20;-0.30;99.90
4207;DHT22;2117;47.972;7.830;2022-12-18T13:18:56;-0.20;99.90
4207;DHT22;2117;47.972;7.830;2022-12-18T13:21:32;0.00;99.90
4207;DHT22;2117;47.972;7.830;2022-12-18T13:24:19;-0.10;99.90
4207;DHT22;2117;47.972;7.830;2022-12-18T13:26:48;-0.10;99.90
4207;DHT22;2117;47.972;7.830;2022-12-18T13:32:19;0.10;99.90
4207;DHT22;2117;47.972;7.830;2022-12-18T13:34:45;0.10;99.90
4207;DHT22;2117;47.972;7.830;2022-12-18T13:37:40;0.30;99.90
4207;DHT22;2117;47.972;7.830;2022-12-18T13:45:47;0.30;99.90
4207;DHT22;2117;47.972;7.830;2022-12-18T13:48:23;0.30;99.90
4207;DHT22;2117;47.972;7.830;2022-12-18T13:50:56;0.30;99.90
4207;DHT22;2117;47.972;7.830;2022-12-18T13:53:36;0.30;99.90
4207;DHT22;2117;47.972;7.830;2022-12-18T13:56:03;0.30;99.90
4207;DHT22;2117;47.972;7.830;2022-12-18T13:58:29;0.40;99.90
4207;DHT22;2117;47.972;7.830;2022-12-18T14:00:55;0.30;99.90
4207;DHT22;2117;47.972;7.830;2022-12-18T14:03:24;0.00;99.90
4207;DHT22;2117;47.972;7.830;2022-12-18T14:06:03;-0.10;99.90
4207;DHT22;2117;47.972;7.830;2022-12-18T14:08:41;-0.10;99.90
4207;DHT22;2117;47.972;7.830;2022-12-18T14:11:19;0.00;99.90
4207;DHT22;2117;47.972;7.830;2022-12-18T14:13:46;0.10;99.90
4207;DHT22;2117;47.972;7.830;2022-12-18T14:16:14;0.00;99.90
4207;DHT22;2117;47.972;7.830;2022-12-18T14:18:56;0.00;99.90
4207;DHT22;2117;47.972;7.830;2022-12-18T14:21:28;0.10;99.90
4207;DHT22;2117;47.972;7.830;2022-12-18T14:24:20;0.00;99.90
4207;DHT22;2117;47.972;7.830;2022-12-18T14:26:47;0.00;99.90
4207;DHT22;2117;47.972;7.830;2022-12-18T14:32:14;-0.10;99.90
4207;DHT22;2117;47.972;7.830;2022-12-18T14:34:43;-0.20;99.90
4207;DHT22;2117;47.972;7.830;2022-12-18T14:37:15;-0.20;99.90
4207;DHT22;2117;47.972;7.830;2022-12-18T14:39:55;-0.20;99.90
4207;DHT22;2117;47.972;7.830;2022-12-18T14:42:22;-0.20;99.90
4207;DHT22;2117;47.972;7.830;2022-12-18T14:44:47;-0.20;99.90
4207;DHT22;2117;47.972;7.830;2022-12-18T14:47:15;-0.30;99.90
4207;DHT22;2117;47.972;7.830;2022-12-18T14:49:41;-0.30;99.90
4207;DHT22;2117;47.972;7.830;2022-12-18T14:52:24;-0.30;99.90
4207;DHT22;2117;47.972;7.830;2022-12-18T14:57:31;-0.30;99.90
4207;DHT22;2117;47.972;7.830;2022-12-18T15:00:06;-0.30;99.90
4207;DHT22;2117;47.972;7.830;2022-12-18T15:02:35;-0.40;99.90
4207;DHT22;2117;47.972;7.830;2022-12-18T15:05:05;-0.50;99.90
4207;DHT22;2117;47.972;7.830;2022-12-18T15:08:03;-0.50;99.90
4207;DHT22;2117;47.972;7.830;2022-12-18T15:10:30;-0.70;99.90
4207;DHT22;2117;47.972;7.830;2022-12-18T15:26:06;-0.70;99.90
4207;DHT22;2117;47.972;7.830;2022-12-18T15:28:36;-0.70;99.90
4207;DHT22;2117;47.972;7.830;2022-12-18T15:31:06;-0.70;99.90
4207;DHT22;2117;47.972;7.830;2022-12-18T15:33:37;-0.80;99.90
4207;DHT22;2117;47.972;7.830;2022-12-18T15:36:14;-0.80;99.90
4207;DHT22;2117;47.972;7.830;2022-12-18T15:38:40;-0.80;99.90
4207;DHT22;2117;47.972;7.830;2022-12-18T15:41:18;-0.80;99.90
4207;DHT22;2117;47.972;7.830;2022-12-18T15:43:45;-0.90;99.90
4207;DHT22;2117;47.972;7.830;2022-12-18T15:46:15;-0.90;99.90
4207;DHT22;2117;47.972;7.830;2022-12-18T15:48:49;-0.90;99.90
4207;DHT22;2117;47.972;7.830;2022-12-18T15:51:20;-0.90;99.90
4207;DHT22;2117;47.972;7.830;2022-12-18T15:53:47;-0.90;99.90
4207;DHT22;2117;47.972;7.830;2022-12-18T15:56:15;-0.90;99.90
4207;DHT22;2117;47.972;7.830;2022-12-18T15:59:00;-0.90;99.90
4207;DHT22;2117;47.972;7.830;2022-12-18T16:01:28;-1.00;99.90
4207;DHT22;2117;47.972;7.830;2022-12-18T16:03:54;-1.00;99.90
4207;DHT22;2117;47.972;7.830;2022-12-18T16:06:21;-1.00;99.90
4207;DHT22;2117;47.972;7.830;2022-12-18T16:08:47;-1.00;99.90
4207;DHT22;2117;47.972;7.830;2022-12-18T16:11:27;-1.00;99.90
4207;DHT22;2117;47.972;7.830;2022-12-18T16:14:25;-1.10;99.90
4207;DHT22;2117;47.972;7.830;2022-12-18T16:17:09;-1.00;99.90
4207;DHT22;2117;47.972;7.830;2022-12-18T16:19:34;-1.00;99.90
4207;DHT22;2117;47.972;7.830;2022-12-18T16:22:00;-1.00;99.90
4207;DHT22;2117;47.972;7.830;2022-12-18T16:24:31;-1.10;99.90
4207;DHT22;2117;47.972;7.830;2022-12-18T16:26:58;-1.10;99.90
4207;DHT22;2117;47.972;7.830;2022-12-18T16:29:25;-1.10;99.90
4207;DHT22;2117;47.972;7.830;2022-12-18T16:31:53;-1.10;99.90
4207;DHT22;2117;47.972;7.830;2022-12-18T16:34:24;-1.10;99.90
4207;DHT22;2117;47.972;7.830;2022-12-18T16:37:01;-1.00;99.90
4207;DHT22;2117;47.972;7.830;2022-12-18T16:39:27;-1.00;99.90
4207;DHT22;2117;47.972;7.830;2022-12-18T16:41:53;-1.00;99.90
4207;DHT22;2117;47.972;7.830;2022-12-18T16:44:19;-1.00;99.90
4207;DHT22;2117;47.972;7.830;2022-12-18T16:46:45;-1.00;99.90
4207;DHT22;2117;47.972;7.830;2022-12-18T16:49:15;-1.00;99.90
4207;DHT22;2117;47.972;7.830;2022-12-18T16:51:41;-1.00;99.90
4207;DHT22;2117;47.972;7.830;2022-12-18T16:54:07;-1.00;99.90
4207;DHT22;2117;47.972;7.830;2022-12-18T16:56:33;-1.00;99.90
4207;DHT22;2117;47.972;7.830;2022-12-18T16:59:00;-1.00;99.90
4207;DHT22;2117;47.972;7.830;2022-12-18T17:01:28;-1.00;99.90
4207;DHT22;2117;47.972;7.830;2022-12-18T17:04:05;-1.00;99.90
4207;DHT22;2117;47.972;7.830;2022-12-18T17:06:34;-1.00;99.90
4207;DHT22;2117;47.972;7.830;2022-12-18T17:09:03;-1.00;99.90
4207;DHT22;2117;47.972;7.830;2022-12-18T17:11:31;-1.00;99.90
4207;DHT22;2117;47.972;7.830;2022-12-18T17:13:57;-1.00;99.90
4207;DHT22;2117;47.972;7.830;2022-12-18T17:16:24;-1.00;99.90
4207;DHT22;2117;47.972;7.830;2022-12-18T17:18:52;-1.00;99.90
4207;DHT22;2117;47.972;7.830;2022-12-18T17:21:18;-1.00;99.90
4207;DHT22;2117;47.972;7.830;2022-12-18T17:23:44;-1.00;99.90
4207;DHT22;2117;47.972;7.830;2022-12-18T17:26:11;-1.00;99.90
4207;DHT22;2117;47.972;7.830;2022-12-18T17:28:38;-1.10;99.90
4207;DHT22;2117;47.972;7.830;2022-12-18T17:31:20;-1.00;99.90
4207;DHT22;2117;47.972;7.830;2022-12-18T17:33:46;-1.00;99.90
4207;DHT22;2117;47.972;7.830;2022-12-18T17:36:13;-1.00;99.90
4207;DHT22;2117;47.972;7.830;2022-12-18T17:38:39;-1.00;99.90
4207;DHT22;2117;47.972;7.830;2022-12-18T17:41:09;-1.00;99.90
4207;DHT22;2117;47.972;7.830;2022-12-18T17:43:36;-1.00;99.90
4207;DHT22;2117;47.972;7.830;2022-12-18T17:46:10;-1.00;99.90
4207;DHT22;2117;47.972;7.830;2022-12-18T17:48:35;-1.00;99.90
4207;DHT22;2117;47.972;7.830;2022-12-18T17:51:02;-1.00;99.90
4207;DHT22;2117;47.972;7.830;2022-12-18T17:53:28;-0.90;99.90
4207;DHT22;2117;47.972;7.830;2022-12-18T17:55:55;-0.90;99.90
4207;DHT22;2117;47.972;7.830;2022-12-18T17:58:21;-0.90;99.90
4207;DHT22;2117;47.972;7.830;2022-12-18T18:00:47;-0.90;99.90
4207;DHT22;2117;47.972;7.830;2022-12-18T18:03:13;-0.90;99.90
4207;DHT22;2117;47.972;7.830;2022-12-18T18:05:38;-0.90;99.90
4207;DHT22;2117;47.972;7.830;2022-12-18T18:08:04;-0.90;99.90
4207;DHT22;2117;47.972;7.830;2022-12-18T18:10:30;-1.00;99.90
4207;DHT22;2117;47.972;7.830;2022-12-18T18:12:57;-1.00;99.90
4207;DHT22;2117;47.972;7.830;2022-12-18T18:15:41;-1.00;99.90
4207;DHT22;2117;47.972;7.830;2022-12-18T18:18:07;-1.10;99.90
4207;DHT22;2117;47.972;7.830;2022-12-18T18:20:33;-1.00;99.90
4207;DHT22;2117;47.972;7.830;2022-12-18T18:22:58;-1.10;99.90
4207;DHT22;2117;47.972;7.830;2022-12-18T18:25:24;-1.10;99.90
4207;DHT22;2117;47.972;7.830;2022-12-18T18:27:49;-1.10;99.90
4207;DHT22;2117;47.972;7.830;2022-12-18T18:30:15;-1.10;99.90
4207;DHT22;2117;47.972;7.830;2022-12-18T18:32:40;-1.10;99.90
4207;DHT22;2117;47.972;7.830;2022-12-18T18:35:06;-1.00;99.90
4207;DHT22;2117;47.972;7.830;2022-12-18T18:37:33;-1.00;99.90
4207;DHT22;2117;47.972;7.830;2022-12-18T18:39:58;-1.00;99.90
4207;DHT22;2117;47.972;7.830;2022-12-18T18:42:28;-1.00;99.90
4207;DHT22;2117;47.972;7.830;2022-12-18T18:44:53;-1.00;99.90
4207;DHT22;2117;47.972;7.830;2022-12-18T18:47:19;-1.00;99.90
4207;DHT22;2117;47.972;7.830;2022-12-18T18:49:45;-1.00;99.90
4207;DHT22;2117;47.972;7.830;2022-12-18T18:52:10;-0.90;99.90
4207;DHT22;2117;47.972;7.830;2022-12-18T18:54:36;-0.90;99.90
4207;DHT22;2117;47.972;7.830;2022-12-18T18:57:02;-1.00;99.90
4207;DHT22;2117;47.972;7.830;2022-12-18T18:59:27;-1.10;99.90
4207;DHT22;2117;47.972;7.830;2022-12-18T19:01:53;-1.10;99.90
4207;DHT22;2117;47.972;7.830;2022-12-18T19:04:18;-1.10;99.90
4207;DHT22;2117;47.972;7.830;2022-12-18T19:06:44;-1.00;99.90
4207;DHT22;2117;47.972;7.830;2022-12-18T19:09:12;-1.00;99.90
4207;DHT22;2117;47.972;7.830;2022-12-18T19:11:38;-1.00;99.90
4207;DHT22;2117;47.972;7.830;2022-12-18T19:14:22;-0.90;99.90
4207;DHT22;2117;47.972;7.830;2022-12-18T19:16:48;-0.90;99.90
4207;DHT22;2117;47.972;7.830;2022-12-18T19:19:13;-1.00;99.90
4207;DHT22;2117;47.972;7.830;2022-12-18T19:21:41;-1.00;99.90
4207;DHT22;2117;47.972;7.830;2022-12-18T19:24:08;-1.00;99.90
4207;DHT22;2117;47.972;7.830;2022-12-18T19:26:34;-1.00;99.90
4207;DHT22;2117;47.972;7.830;2022-12-18T19:29:04;-1.00;99.90
4207;DHT22;2117;47.972;7.830;2022-12-18T19:31:29;-0.90;99.90
4207;DHT22;2117;47.972;7.830;2022-12-18T19:33:55;-0.90;99.90
4207;DHT22;2117;47.972;7.830;2022-12-18T19:36:25;-0.90;99.90
4207;DHT22;2117;47.972;7.830;2022-12-18T19:38:52;-0.90;99.90
4207;DHT22;2117;47.972;7.830;2022-12-18T19:41:19;-0.80;99.90
4207;DHT22;2117;47.972;7.830;2022-12-18T19:43:45;-0.80;99.90
4207;DHT22;2117;47.972;7.830;2022-12-18T19:46:15;-0.80;99.90
4207;DHT22;2117;47.972;7.830;2022-12-18T19:48:42;-0.80;99.90
4207;DHT22;2117;47.972;7.830;2022-12-18T19:51:15;-0.70;99.90
4207;DHT22;2117;47.972;7.830;2022-12-18T19:53:41;-0.70;99.90
4207;DHT22;2117;47.972;7.830;2022-12-18T19:56:09;-0.70;99.90
4207;DHT22;2117;47.972;7.830;2022-12-18T19:58:35;-0.70;99.90
4207;DHT22;2117;47.972;7.830;2022-12-18T20:01:01;-0.60;99.90
4207;DHT22;2117;47.972;7.830;2022-12-18T20:03:27;-0.60;99.90
4207;DHT22;2117;47.972;7.830;2022-12-18T20:05:53;-0.60;99.90
4207;DHT22;2117;47.972;7.830;2022-12-18T20:08:18;-0.60;99.90
4207;DHT22;2117;47.972;7.830;2022-12-18T20:10:44;-0.70;99.90
4207;DHT22;2117;47.972;7.830;2022-12-18T20:13:14;-0.80;99.90
4207;DHT22;2117;47.972;7.830;2022-12-18T20:15:39;-0.70;99.90
4207;DHT22;2117;47.972;7.830;2022-12-18T20:18:05;-0.70;99.90
4207;DHT22;2117;47.972;7.830;2022-12-18T20:20:30;-0.60;99.90